Startpagina
METAR-TAF:

METAR-TAF

Vliegvelden :

Luchthaven Mariehamn

Mariehamn, Finland

breedte: 60-07N, lengte: 019-54E, hoogte: 6 m

Actueel weer

Dit bericht is 42 minuten geleden gemaakt, om 11:20 UTC
Wind 15 kt uit het zuidzuidoosten, variërend tussen het oostzuidoosten en het zuiden
Temperatuur 4°C
Vochtigheid 81%
Druk 1025 hPa
Zicht 10 km of meer
Geheel bewolkt op 1200 ft

METAR: EFMA 221120Z 15015KT 110V170 9999 OVC012 04/01 Q1025

Tijdstip: 14:02 (12:02 UTC)

Verwachting

Dit bericht is 37 minuten geleden gemaakt, om 11:25 UTC
Verwachting geldig van 22 om 12 UTC tot 22 om 21 UTC
Wind 15 kt uit het zuidzuidoosten
Zicht 10 km of meer
Gebroken wolken op 1200 ft
Tijdelijke
van 22 om 12 UTC tot 22 om 21 UTC
Gebroken wolken op 1500 ft

TAF: EFMA 221125Z 2212/2221 15015KT 9999 BKN012 TEMPO 2212/2221 BKN015

Waarnemingen en weersverwachtingen van meer dan 4000 vliegvelden (METAR en TAF).

De beschikbare stations zijn de gele en rode punten op de kaart.

Ga met uw muis naar het station om de naam te zien.

Klik dan om waarnemingen en weersverwachtingen te zien.

kaart wijzigen: klik op de groene knoppen met een zwart kruis om in te zoomen, op de groene knop met een streepje om uit te zoomen of op de groene pijlen voor aangrenzende kaarten.


METAR-TAF: